PILOT専門進学塾

パイロットになるには

羽田空港日記 2020年10月18日(日)

174 views
約 2 分

パイロット志望者の皆さまこんにちは!

理事長・パイロット養成コンサルの冨村です。

羽田空港(東京地方)は最近雨が多いのですが、本日は薄曇り、気持ちの良い秋晴れとなっています!

RJTT 180430Z 01007KT 9999 FEW030 BKN/// 19/11 Q1020 NOSIG RMK 1CU030 A3014

TAF RJTT 172305Z 1800/1906 02010KT 9999 FEW020 SCT060

さらに関東はこれからダイヤモンド富士の季節!

本日羽田からは、『ほぼ』ダイヤモンド富士を見ることが出来ました!

頂上に沈んでいないので『ほぼ』です。

そんな気持ちの良い天気の中、本日はパイロットの先輩が訪ねてくださいました!

また、普段はオンライン受講されている遠方の塾生達も訪ねてくださり、オンラインでは出来ない面接対策の基本確認事項を実施しました!

今月から日曜営業も始まりましたので、グループ全体では、なんと毎日営業となりました!

もともとわたくし冨村は、倒れるまで働くのがポリシーで、休みなんぞMyカレンダーに存在しません。

今は、私大やインターンシップなどが受験前ということもあり、連日対策で忙しくしております!

そんな中でも、本日のようにパイロットの先輩が駆けつけてくださり、貴重なお話を直接塾生にしてくださることほど、有り難く、また気の休まる時間はありません!

当然ながら、終了後は宴席で盛り上がることと相成りました。(当然ですが…乗務スケジュールや社内規定に触れないことを確認しております!)

お気に入りに追加ください!
Share / Subscribe
Facebook Likes
Tweets
Hatena Bookmarks
Pinterest
Pocket
Evernote
Feedly
Send to LINE
UA-91629185-1